Time;durP1;ratioP1;P1;durP2;ratioP2;P2;SDS_P1;SDS_P2;PMS_P1;PMS_P2;Temp;Humidity;BMP_temperature;BMP_pressure;BME280_temperature;BME280_humidity;BME280_pressure;Samples;Min_cycle;Max_cycle;Signal;HPM_P1;HPM_P2
2022/06/15 00:01:16;;;;;;;0.40;0.20;;;16.40;99.90;;;;;;5070302;28;20390;-68
2022/06/15 00:03:42;;;;;;;0.40;0.30;;;16.40;99.90;;;;;;5059169;28;20391;-68
2022/06/15 00:06:11;;;;;;;0.40;0.20;;;16.40;99.90;;;;;;5052436;28;20392;-68
2022/06/15 00:08:37;;;;;;;0.40;0.20;;;16.30;99.90;;;;;;5071056;28;20388;-68
2022/06/15 00:11:13;;;;;;;0.40;0.20;;;16.30;99.90;;;;;;5070612;28;20376;-70
2022/06/15 00:13:39;;;;;;;0.40;0.20;;;16.30;99.90;;;;;;5071146;28;20416;-68
2022/06/15 00:16:06;;;;;;;0.40;0.28;;;16.10;99.90;;;;;;5070754;28;20456;-69
2022/06/15 00:18:34;;;;;;;0.50;0.40;;;16.10;99.90;;;;;;5053696;28;20688;-68
2022/06/15 00:20:59;;;;;;;0.40;0.30;;;16.10;99.90;;;;;;5071352;28;20849;-68
2022/06/15 00:23:27;;;;;;;0.40;0.20;;;16.10;99.90;;;;;;5070363;28;20469;-68
2022/06/15 00:25:53;;;;;;;0.40;0.30;;;16.10;99.90;;;;;;5071298;28;20459;-69
2022/06/15 00:28:20;;;;;;;0.40;0.20;;;16.10;99.90;;;;;;5070530;28;20473;-68
2022/06/15 00:30:49;;;;;;;0.40;0.30;;;16.10;99.90;;;;;;5053313;28;20732;-68
2022/06/15 00:33:16;;;;;;;0.40;0.20;;;16.10;99.90;;;;;;5070355;28;20411;-68
2022/06/15 00:35:41;;;;;;;0.40;0.20;;;16.00;99.90;;;;;;5070895;28;20445;-68
2022/06/15 00:38:07;;;;;;;1.60;0.60;;;16.10;99.90;;;;;;5070370;28;20384;-69
2022/06/15 00:40:34;;;;;;;0.40;0.20;;;16.10;99.90;;;;;;5071385;28;20432;-68
2022/06/15 00:43:01;;;;;;;0.40;0.20;;;16.10;99.90;;;;;;5070995;28;20457;-68
2022/06/15 00:45:27;;;;;;;0.40;0.30;;;16.00;99.90;;;;;;5069991;28;20493;-68
2022/06/15 00:47:53;;;;;;;0.40;0.20;;;16.00;99.90;;;;;;5070861;28;20388;-68
2022/06/15 00:50:23;;;;;;;0.40;0.28;;;15.90;99.90;;;;;;5070138;28;20387;-69
2022/06/15 00:53:05;;;;;;;0.40;0.20;;;15.90;99.90;;;;;;5070570;28;20434;-68
2022/06/15 00:55:33;;;;;;;0.40;0.20;;;16.00;99.90;;;;;;5070867;28;20384;-68
2022/06/15 00:58:04;;;;;;;0.50;0.50;;;15.90;99.90;;;;;;5070564;28;20475;-68
2022/06/15 01:00:30;;;;;;;0.40;0.30;;;15.90;99.90;;;;;;5070314;28;20384;-68
2022/06/15 01:02:56;;;;;;;0.40;0.20;;;15.80;99.90;;;;;;5070419;28;20844;-68
2022/06/15 01:05:30;;;;;;;0.40;0.20;;;15.70;99.90;;;;;;5069939;28;20394;-68
2022/06/15 01:08:06;;;;;;;0.40;0.20;;;15.70;99.90;;;;;;5070743;28;20491;-68
2022/06/15 01:11:15;;;;;;;0.40;0.20;;;15.60;99.90;;;;;;5070316;28;20384;-68
2022/06/15 01:14:07;;;;;;;0.40;0.30;;;15.60;99.90;;;;;;5070845;28;20415;-68
2022/06/15 01:17:02;;;;;;;0.40;0.20;;;15.70;99.90;;;;;;5070467;28;20415;-68
2022/06/15 01:20:04;;;;;;;0.50;0.40;;;15.60;99.90;;;;;;5069594;28;20390;-68
2022/06/15 01:22:30;;;;;;;0.40;0.20;;;15.60;99.90;;;;;;5069400;28;20430;-68
2022/06/15 01:25:14;;;;;;;0.40;0.20;;;15.40;99.90;;;;;;5070421;28;20852;-68
2022/06/15 01:27:58;;;;;;;0.40;0.20;;;15.40;99.90;;;;;;5070530;28;20419;-68
2022/06/15 01:30:49;;;;;;;0.80;0.40;;;15.40;99.90;;;;;;5070001;28;20392;-68
2022/06/15 01:34:00;;;;;;;0.40;0.20;;;15.30;99.90;;;;;;5069675;28;20403;-69
2022/06/15 01:36:38;;;;;;;0.40;0.30;;;15.20;99.90;;;;;;5069689;28;20441;-68
2022/06/15 01:39:18;;;;;;;0.47;0.45;;;15.20;99.90;;;;;;5070539;28;20379;-68
2022/06/15 01:42:10;;;;;;;0.40;0.30;;;15.20;99.90;;;;;;5070222;28;20892;-68
2022/06/15 01:44:39;;;;;;;0.40;0.20;;;15.10;99.90;;;;;;5070568;28;20427;-68
2022/06/15 01:47:10;;;;;;;0.40;0.20;;;15.20;99.90;;;;;;5070042;28;20380;-68
2022/06/15 01:50:16;;;;;;;0.40;0.20;;;15.00;99.90;;;;;;5070150;28;20382;-69
2022/06/15 01:52:47;;;;;;;0.40;0.20;;;15.00;99.90;;;;;;4988645;28;20444;-68
2022/06/15 01:55:25;;;;;;;0.40;0.20;;;15.00;99.90;;;;;;5055488;28;20388;-69
2022/06/15 01:57:54;;;;;;;0.40;0.20;;;15.00;99.90;;;;;;5070273;28;20372;-68
2022/06/15 02:00:20;;;;;;;0.40;0.20;;;15.10;99.90;;;;;;5069079;28;20376;-68
2022/06/15 02:03:17;;;;;;;0.50;0.40;;;14.90;99.90;;;;;;5070235;28;20474;-69
2022/06/15 02:05:58;;;;;;;0.40;0.20;;;14.80;99.90;;;;;;5070335;28;20379;-68
2022/06/15 02:08:37;;;;;;;0.40;0.40;;;15.10;99.90;;;;;;5069283;28;20421;-68
2022/06/15 02:11:09;;;;;;;0.63;0.63;;;15.00;99.90;;;;;;5070471;28;20384;-68
2022/06/15 02:13:42;;;;;;;0.40;0.30;;;15.00;99.90;;;;;;5069825;28;20411;-69
2022/06/15 02:16:14;;;;;;;0.40;0.20;;;14.90;99.90;;;;;;5070043;28;20384;-70
2022/06/15 02:18:42;;;;;;;0.40;0.30;;;15.00;99.90;;;;;;5069840;28;20774;-68
2022/06/15 02:21:13;;;;;;;0.40;0.20;;;14.80;99.90;;;;;;5069940;28;20455;-69
2022/06/15 02:23:42;;;;;;;0.40;0.20;;;14.90;99.90;;;;;;5069843;28;20384;-68
2022/06/15 02:26:09;;;;;;;0.40;0.20;;;14.90;99.90;;;;;;5069937;28;20384;-68
2022/06/15 02:28:40;;;;;;;0.40;0.22;;;15.00;99.90;;;;;;5069665;28;20376;-68
2022/06/15 02:31:06;;;;;;;0.40;0.30;;;15.00;99.90;;;;;;5069702;28;20368;-68
2022/06/15 02:33:37;;;;;;;0.40;0.20;;;15.00;99.90;;;;;;5071280;28;20453;-68
2022/06/15 02:36:04;;;;;;;0.40;0.20;;;14.90;99.90;;;;;;5073770;28;20383;-68
2022/06/15 02:38:35;;;;;;;0.40;0.40;;;14.90;99.90;;;;;;5072677;28;20471;-68
2022/06/15 02:41:01;;;;;;;0.40;0.20;;;14.80;99.90;;;;;;5073647;28;20394;-68
2022/06/15 02:43:30;;;;;;;0.40;0.40;;;14.70;99.90;;;;;;5072193;28;20399;-68
2022/06/15 02:46:01;;;;;;;0.40;0.20;;;14.80;99.90;;;;;;5073588;28;20386;-68
2022/06/15 02:48:30;;;;;;;0.40;0.40;;;14.90;99.90;;;;;;5072619;28;20455;-69
2022/06/15 02:51:18;;;;;;;0.40;0.20;;;14.80;99.90;;;;;;5073552;28;20421;-68
2022/06/15 02:53:46;;;;;;;0.40;0.20;;;14.70;99.90;;;;;;5073176;28;20453;-68
2022/06/15 02:56:14;;;;;;;0.40;0.20;;;14.60;99.90;;;;;;5072627;28;20387;-69
2022/06/15 02:58:48;;;;;;;0.40;0.20;;;14.70;99.90;;;;;;5061158;28;20779;-68
2022/06/15 03:01:37;;;;;;;0.40;0.28;;;14.70;99.90;;;;;;5052639;28;20389;-70
2022/06/15 03:04:02;;;;;;;0.40;0.20;;;14.80;99.90;;;;;;5053192;28;20374;-68
2022/06/15 03:06:28;;;;;;;0.40;0.20;;;14.70;99.90;;;;;;5052354;28;20725;-69
2022/06/15 03:08:56;;;;;;;0.40;0.20;;;14.80;99.90;;;;;;5052973;28;20393;-68
2022/06/15 03:11:26;;;;;;;0.40;0.20;;;14.90;99.90;;;;;;5051858;28;20884;-68
2022/06/15 03:13:53;;;;;;;0.40;0.20;;;14.80;99.90;;;;;;5052948;28;20489;-68
2022/06/15 03:16:19;;;;;;;0.40;0.20;;;14.90;99.90;;;;;;5052143;28;20483;-69
2022/06/15 03:18:45;;;;;;;0.40;0.20;;;14.80;99.90;;;;;;5052587;28;20881;-68
2022/06/15 03:21:11;;;;;;;0.40;0.40;;;14.90;99.90;;;;;;5052914;28;20409;-68
2022/06/15 03:23:37;;;;;;;0.40;0.20;;;15.00;99.90;;;;;;5052091;28;20381;-68
2022/06/15 03:26:04;;;;;;;0.40;0.20;;;15.00;99.90;;;;;;5052824;28;20373;-68
2022/06/15 03:28:30;;;;;;;0.40;0.20;;;14.90;99.90;;;;;;5052141;28;20492;-68
2022/06/15 03:30:56;;;;;;;0.40;0.20;;;15.00;99.90;;;;;;5052511;28;20874;-68
2022/06/15 03:33:22;;;;;;;0.40;0.20;;;14.90;99.90;;;;;;5051944;28;20432;-68
2022/06/15 03:35:48;;;;;;;0.40;0.20;;;14.90;99.90;;;;;;5052944;28;20392;-68
2022/06/15 03:38:14;;;;;;;0.40;0.20;;;14.90;99.90;;;;;;5052271;28;20572;-70
2022/06/15 03:40:43;;;;;;;0.40;0.20;;;14.90;99.90;;;;;;5052266;28;20473;-70
2022/06/15 03:43:09;;;;;;;0.40;0.20;;;15.00;99.90;;;;;;5052545;28;20747;-69
2022/06/15 03:45:35;;;;;;;0.40;0.20;;;14.90;99.90;;;;;;5051930;28;20455;-69
2022/06/15 03:48:01;;;;;;;0.50;0.50;;;14.90;99.90;;;;;;5052494;28;20373;-69
2022/06/15 03:50:28;;;;;;;0.40;0.20;;;14.80;99.90;;;;;;5068342;28;20422;-69
2022/06/15 03:52:54;;;;;;;0.40;0.20;;;14.90;99.90;;;;;;5072507;28;20380;-70
2022/06/15 03:55:21;;;;;;;0.40;0.20;;;14.80;99.90;;;;;;5070146;28;20403;-69
2022/06/15 03:57:47;;;;;;;0.40;0.30;;;14.90;99.90;;;;;;5072152;28;20736;-69
2022/06/15 04:00:16;;;;;;;0.40;0.20;;;14.80;99.90;;;;;;5053809;28;20913;-69
2022/06/15 04:02:42;;;;;;;0.40;0.20;;;14.90;99.90;;;;;;5053820;28;20440;-69
2022/06/15 04:05:08;;;;;;;0.40;0.20;;;15.10;99.90;;;;;;5071219;28;20731;-69
2022/06/15 04:10:17;;;;;;;0.40;0.20;;;15.10;99.90;;;;;;5063057;28;20433;-70
2022/06/15 04:12:44;;;;;;;0.40;0.20;;;15.10;99.90;;;;;;5070127;28;20876;-69
2022/06/15 04:15:10;;;;;;;0.40;0.20;;;15.00;99.90;;;;;;5053617;28;20765;-69
2022/06/15 04:17:37;;;;;;;0.40;0.20;;;15.00;99.90;;;;;;5070786;28;20391;-69
2022/06/15 04:22:48;;;;;;;0.40;0.20;;;15.10;99.90;;;;;;5071805;28;20418;-69
2022/06/15 04:25:14;;;;;;;0.40;0.40;;;15.00;99.90;;;;;;5071499;28;20387;-69
2022/06/15 04:27:40;;;;;;;0.40;0.20;;;15.10;99.90;;;;;;5070597;28;20395;-69
2022/06/15 04:30:06;;;;;;;0.40;0.20;;;15.10;99.90;;;;;;5071744;28;20383;-69
2022/06/15 04:32:32;;;;;;;0.40;0.20;;;15.10;99.90;;;;;;5070824;28;20430;-69
2022/06/15 04:34:57;;;;;;;0.40;0.20;;;15.20;99.90;;;;;;5071234;28;20412;-69
2022/06/15 04:37:23;;;;;;;0.40;0.20;;;15.30;99.90;;;;;;5070505;28;20871;-69
2022/06/15 04:39:48;;;;;;;0.40;0.20;;;15.40;99.90;;;;;;5070612;28;20395;-69
2022/06/15 04:42:15;;;;;;;0.40;0.20;;;15.30;99.90;;;;;;5071270;28;20487;-69
2022/06/15 04:44:40;;;;;;;0.40;0.20;;;15.30;99.90;;;;;;5069832;28;20923;-69
2022/06/15 04:47:06;;;;;;;0.40;0.20;;;15.30;99.90;;;;;;5070233;28;20402;-69
2022/06/15 04:49:32;;;;;;;0.40;0.20;;;15.30;99.90;;;;;;5070200;28;20398;-69
2022/06/15 04:51:57;;;;;;;0.40;0.20;;;15.30;99.90;;;;;;5070935;28;20419;-69
2022/06/15 04:54:23;;;;;;;0.40;0.20;;;15.40;99.90;;;;;;5069936;28;20408;-70
2022/06/15 04:56:49;;;;;;;0.40;0.20;;;15.50;99.90;;;;;;5070473;28;20475;-69
2022/06/15 04:59:15;;;;;;;0.40;0.20;;;15.50;99.90;;;;;;5065133;28;20850;-69
2022/06/15 05:01:41;;;;;;;0.40;0.40;;;15.70;99.90;;;;;;5059374;28;20434;-69
2022/06/15 05:04:07;;;;;;;0.40;0.20;;;15.80;99.90;;;;;;5065091;28;20400;-69
2022/06/15 05:06:37;;;;;;;0.40;0.20;;;15.80;99.90;;;;;;5068966;28;20394;-69
2022/06/15 05:09:08;;;;;;;0.40;0.20;;;15.70;99.90;;;;;;5065098;28;20504;-69
2022/06/15 05:11:34;;;;;;;0.60;0.60;;;15.90;99.90;;;;;;5061367;28;20431;-68
2022/06/15 05:14:00;;;;;;;0.40;0.40;;;16.00;99.90;;;;;;5061829;28;20843;-70
2022/06/15 05:16:27;;;;;;;0.40;0.20;;;16.00;99.90;;;;;;5059044;28;20750;-69
2022/06/15 05:18:53;;;;;;;0.40;0.30;;;15.90;99.90;;;;;;5060404;28;20388;-70
2022/06/15 05:21:19;;;;;;;0.40;0.30;;;16.00;99.90;;;;;;5070766;28;20463;-70
2022/06/15 05:23:45;;;;;;;0.40;0.40;;;16.20;99.90;;;;;;5069343;28;20498;-70
2022/06/15 05:26:10;;;;;;;0.40;0.20;;;16.30;99.90;;;;;;5070430;28;20462;-69
2022/06/15 05:28:37;;;;;;;0.40;0.20;;;16.30;99.90;;;;;;5069497;28;20391;-70
2022/06/15 05:31:14;;;;;;;0.40;0.20;;;16.50;99.90;;;;;;5070205;28;20422;-70
2022/06/15 05:33:40;;;;;;;0.40;0.20;;;16.60;99.90;;;;;;5059474;28;20419;-69
2022/06/15 05:36:12;;;;;;;1.20;1.10;;;16.60;99.90;;;;;;5041001;28;20393;-70
2022/06/15 05:38:39;;;;;;;0.60;0.50;;;16.60;99.90;;;;;;5052646;28;20396;-70
2022/06/15 05:41:05;;;;;;;0.40;0.20;;;16.60;99.90;;;;;;5070695;28;20380;-69
2022/06/15 05:43:32;;;;;;;0.40;0.30;;;16.70;99.90;;;;;;5068500;28;20506;-70
2022/06/15 05:45:58;;;;;;;0.40;0.30;;;16.90;99.90;;;;;;5069702;28;20395;-69
2022/06/15 05:48:24;;;;;;;0.40;0.20;;;16.90;99.90;;;;;;5069734;28;20446;-71
2022/06/15 05:50:49;;;;;;;0.40;0.20;;;17.00;99.90;;;;;;5069863;28;20856;-69
2022/06/15 05:53:15;;;;;;;0.40;0.20;;;17.00;99.90;;;;;;5069758;28;20407;-69
2022/06/15 05:55:41;;;;;;;0.40;0.20;;;17.10;99.90;;;;;;5065847;28;20422;-69
2022/06/15 05:58:06;;;;;;;0.40;0.20;;;17.10;99.90;;;;;;5069134;28;20388;-69
2022/06/15 06:00:32;;;;;;;0.40;0.20;;;17.20;99.90;;;;;;5068755;28;20411;-70
2022/06/15 06:02:58;;;;;;;0.40;0.20;;;17.30;99.90;;;;;;5069697;28;20533;-69
2022/06/15 06:05:24;;;;;;;0.40;0.25;;;17.30;99.90;;;;;;5068567;28;20407;-71
2022/06/15 06:07:50;;;;;;;0.40;0.30;;;17.40;99.90;;;;;;5070728;28;21006;-67
2022/06/15 06:10:16;;;;;;;0.40;0.20;;;17.50;99.90;;;;;;5070997;28;20399;-69
2022/06/15 06:12:42;;;;;;;0.40;0.30;;;17.60;99.90;;;;;;5073586;28;20388;-69
2022/06/15 06:15:08;;;;;;;0.40;0.30;;;17.70;99.90;;;;;;5073173;28;20506;-69
2022/06/15 06:17:34;;;;;;;0.40;0.20;;;17.80;99.90;;;;;;5073575;28;20387;-69
2022/06/15 06:20:00;;;;;;;0.40;0.40;;;17.80;99.90;;;;;;5073788;28;20399;-69
2022/06/15 06:22:26;;;;;;;0.40;0.20;;;17.90;99.90;;;;;;5073700;28;20399;-71
2022/06/15 06:24:52;;;;;;;0.40;0.30;;;18.00;99.90;;;;;;5073857;28;20399;-70
2022/06/15 06:27:18;;;;;;;0.40;0.40;;;18.10;99.90;;;;;;5073501;28;20392;-68
2022/06/15 06:29:44;;;;;;;0.40;0.20;;;18.10;99.90;;;;;;5072268;28;20383;-70
2022/06/15 06:32:13;;;;;;;0.40;0.20;;;18.10;99.90;;;;;;5073654;28;20388;-69
2022/06/15 06:34:38;;;;;;;0.40;0.30;;;18.20;99.90;;;;;;5071010;28;20434;-70
2022/06/15 06:37:07;;;;;;;0.50;0.50;;;18.40;99.90;;;;;;5072014;28;20391;-70
2022/06/15 06:39:35;;;;;;;0.40;0.20;;;18.50;99.90;;;;;;5054921;28;20516;-70
2022/06/15 06:42:02;;;;;;;0.40;0.20;;;18.70;99.90;;;;;;5073066;28;20403;-69
2022/06/15 06:44:28;;;;;;;0.40;0.20;;;18.80;99.90;;;;;;5071972;28;20426;-71
2022/06/15 06:46:54;;;;;;;0.40;0.20;;;18.90;99.90;;;;;;5072739;28;20786;-70
2022/06/15 06:49:21;;;;;;;0.40;0.20;;;18.90;99.90;;;;;;5072957;28;20479;-69
2022/06/15 06:51:47;;;;;;;0.50;0.40;;;19.10;99.90;;;;;;5072235;28;20618;-70
2022/06/15 06:54:16;;;;;;;0.40;0.30;;;19.20;99.90;;;;;;5073057;28;20419;-67
2022/06/15 06:56:42;;;;;;;0.40;0.20;;;19.30;99.90;;;;;;5071172;28;20399;-67
2022/06/15 06:59:12;;;;;;;0.40;0.20;;;19.50;99.90;;;;;;5072347;28;20441;-70
2022/06/15 07:01:40;;;;;;;0.40;0.20;;;19.50;99.90;;;;;;5064661;28;20444;-70
2022/06/15 07:04:06;;;;;;;0.40;0.20;;;19.60;99.90;;;;;;5062963;28;20396;-70
2022/06/15 07:06:32;;;;;;;0.40;0.20;;;19.70;99.90;;;;;;5062811;28;20399;-70
2022/06/15 07:08:58;;;;;;;0.40;0.20;;;19.80;99.90;;;;;;5072932;28;20392;-69
2022/06/15 07:11:24;;;;;;;0.40;0.20;;;19.80;99.90;;;;;;5071080;28;20430;-69
2022/06/15 07:17:12;;;;;;;0.40;0.20;;;19.90;99.90;;;;;;5335355;22;20497;-66
2022/06/15 07:19:37;;;;;;;0.40;0.30;;;20.20;99.90;;;;;;5030271;28;20898;-67
2022/06/15 07:22:05;;;;;;;0.40;0.20;;;20.20;99.90;;;;;;5032091;28;20494;-66
2022/06/15 07:24:31;;;;;;;0.40;0.20;;;20.40;99.90;;;;;;5033207;28;20387;-67
2022/06/15 07:26:56;;;;;;;0.40;0.20;;;20.60;99.90;;;;;;5030204;28;20393;-66
2022/06/15 07:29:22;;;;;;;0.40;0.30;;;20.50;99.90;;;;;;5029603;28;20773;-67
2022/06/15 07:31:55;;;;;;;0.40;0.30;;;20.60;99.90;;;;;;5032884;28;20407;-66
2022/06/15 07:34:23;;;;;;;0.40;0.30;;;20.70;99.90;;;;;;5031728;28;20407;-66
2022/06/15 07:36:50;;;;;;;0.40;0.30;;;20.70;99.90;;;;;;5032833;28;20482;-67
2022/06/15 07:39:19;;;;;;;0.40;0.30;;;20.80;99.90;;;;;;5031849;28;20378;-67
2022/06/15 07:41:46;;;;;;;0.50;0.50;;;21.00;99.90;;;;;;5032607;28;20391;-67
2022/06/15 07:44:12;;;;;;;0.40;0.20;;;21.10;99.90;;;;;;5032036;28;20387;-67
2022/06/15 07:46:37;;;;;;;0.55;0.50;;;21.10;99.90;;;;;;5026853;28;20512;-67
2022/06/15 07:51:57;;;;;;;0.40;0.20;;;21.50;93.00;;;;;;5023407;28;20418;-67
2022/06/15 07:54:24;;;;;;;0.40;0.20;;;21.70;94.00;;;;;;5018709;28;20409;-67
2022/06/15 07:56:52;;;;;;;0.40;0.30;;;21.90;93.90;;;;;;5027433;28;20399;-67
2022/06/15 07:59:18;;;;;;;0.57;0.57;;;22.10;93.20;;;;;;5030451;28;20388;-68
2022/06/15 08:01:45;;;;;;;0.40;0.40;;;22.30;92.60;;;;;;5027983;28;20471;-68
2022/06/15 08:04:13;;;;;;;0.60;0.60;;;22.20;92.20;;;;;;5029338;28;20403;-68
2022/06/15 08:06:41;;;;;;;0.40;0.28;;;22.40;91.80;;;;;;5031769;28;20743;-67
2022/06/15 08:09:09;;;;;;;0.40;0.20;;;22.80;91.10;;;;;;5030619;28;20406;-68
2022/06/15 08:12:11;;;;;;;0.40;0.20;;;22.70;91.60;;;;;;5031859;28;20387;-68
2022/06/15 08:14:26;;;;;;;1.40;0.60;;;22.80;92.00;;;;;;5031528;28;20422;-67
2022/06/15 08:16:52;;;;;;;0.40;0.30;;;22.80;92.80;;;;;;5022561;28;20503;-68
2022/06/15 08:19:17;;;;;;;0.40;0.30;;;22.80;92.10;;;;;;5015704;28;20416;-67
2022/06/15 08:21:43;;;;;;;0.40;0.20;;;22.90;91.80;;;;;;5025257;28;20395;-67
2022/06/15 08:24:09;;;;;;;0.40;0.20;;;23.10;91.50;;;;;;5020075;28;20413;-67
2022/06/15 08:26:37;;;;;;;0.80;0.80;;;23.30;91.70;;;;;;5016605;28;20472;-68
2022/06/15 08:29:10;;;;;;;0.40;0.30;;;23.20;90.70;;;;;;5011502;28;20376;-68
2022/06/15 08:31:36;;;;;;;0.40;0.30;;;23.20;90.50;;;;;;5011550;28;20377;-67
2022/06/15 08:34:03;;;;;;;0.45;0.32;;;23.10;92.00;;;;;;5011567;28;20416;-68
2022/06/15 08:36:30;;;;;;;0.40;0.30;;;23.00;91.80;;;;;;5012029;28;20428;-68
2022/06/15 08:38:56;;;;;;;0.50;0.40;;;23.20;92.20;;;;;;5011985;28;20393;-68
2022/06/15 08:41:36;;;;;;;0.40;0.30;;;23.40;92.00;;;;;;5011174;28;20388;-68
2022/06/15 08:44:13;;;;;;;0.50;0.30;;;23.30;93.70;;;;;;5011529;28;20384;-68
2022/06/15 08:46:50;;;;;;;0.40;0.30;;;23.60;90.90;;;;;;5012181;28;20873;-68
2022/06/15 08:49:40;;;;;;;0.95;0.55;;;23.80;90.30;;;;;;5010642;28;20509;-67
2022/06/15 08:52:15;;;;;;;0.40;0.30;;;23.90;89.00;;;;;;5009691;28;20401;-67
2022/06/15 08:54:58;;;;;;;0.40;0.20;;;23.80;90.50;;;;;;5011870;28;20416;-68
2022/06/15 08:57:35;;;;;;;0.40;0.20;;;23.80;89.30;;;;;;5011034;28;20384;-68
2022/06/15 09:00:19;;;;;;;0.50;0.40;;;23.80;89.80;;;;;;5031331;28;20383;-67
2022/06/15 09:03:35;;;;;;;1.30;1.20;;;24.00;87.20;;;;;;5031500;28;20390;-67
2022/06/15 09:06:32;;;;;;;0.60;0.60;;;23.80;88.20;;;;;;5002561;28;20404;-68
2022/06/15 09:09:12;;;;;;;0.40;0.20;;;23.80;89.10;;;;;;4982967;28;20407;-68
2022/06/15 09:11:43;;;;;;;0.40;0.20;;;23.90;89.60;;;;;;5011553;28;20381;-68
2022/06/15 09:14:40;;;;;;;0.40;0.40;;;24.30;87.20;;;;;;5010387;28;20420;-67
2022/06/15 09:17:13;;;;;;;0.40;0.20;;;24.50;84.40;;;;;;5010028;28;20381;-67
2022/06/15 09:19:46;;;;;;;0.40;0.20;;;24.50;85.30;;;;;;5011564;28;20842;-67
2022/06/15 09:22:20;;;;;;;0.40;0.20;;;24.60;79.60;;;;;;5016641;28;20815;-68
2022/06/15 09:25:16;;;;;;;0.80;0.80;;;24.60;80.50;;;;;;5031169;28;20441;-68
2022/06/15 09:27:53;;;;;;;0.40;0.20;;;24.70;78.40;;;;;;5030921;28;20431;-67
2022/06/15 09:30:24;;;;;;;0.40;0.20;;;24.70;78.70;;;;;;5030290;28;20443;-67
2022/06/15 09:32:58;;;;;;;0.60;0.60;;;24.60;78.30;;;;;;5030895;28;20494;-68
2022/06/15 09:35:38;;;;;;;0.40;0.30;;;24.50;81.30;;;;;;5030211;28;20863;-68
2022/06/15 09:38:06;;;;;;;0.40;0.30;;;24.70;76.40;;;;;;5030192;28;20882;-68
2022/06/15 09:40:46;;;;;;;0.40;0.30;;;25.00;76.00;;;;;;5030943;28;20383;-68
2022/06/15 09:43:22;;;;;;;3.77;0.63;;;25.10;76.30;;;;;;5029838;28;20379;-68
2022/06/15 09:46:04;;;;;;;0.40;0.20;;;25.10;77.00;;;;;;5030823;28;20474;-68
2022/06/15 09:49:04;;;;;;;0.82;0.75;;;25.10;77.40;;;;;;5024310;28;20414;-68
2022/06/15 09:51:35;;;;;;;0.40;0.30;;;25.20;81.20;;;;;;5019318;28;20885;-67
2022/06/15 09:54:29;;;;;;;0.40;0.30;;;25.10;78.40;;;;;;5025222;28;20438;-68
2022/06/15 09:56:55;;;;;;;0.40;0.20;;;25.10;73.80;;;;;;5025337;28;20414;-67
2022/06/15 09:59:24;;;;;;;0.50;0.30;;;25.10;73.40;;;;;;5019403;28;20435;-67
2022/06/15 10:01:50;;;;;;;0.40;0.30;;;25.30;73.40;;;;;;5024538;28;20779;-67
2022/06/15 10:04:36;;;;;;;0.40;0.30;;;25.40;76.40;;;;;;5012633;28;20410;-67
2022/06/15 10:07:11;;;;;;;0.40;0.28;;;25.40;77.30;;;;;;5030559;28;20392;-68
2022/06/15 10:09:39;;;;;;;0.90;0.75;;;25.60;74.70;;;;;;5023359;28;20480;-68
2022/06/15 10:15:14;;;;;;;0.40;0.30;;;25.80;73.80;;;;;;5022007;28;21123;-67
2022/06/15 10:17:45;;;;;;;0.40;0.20;;;25.80;75.10;;;;;;5009928;28;20449;-67
2022/06/15 10:20:28;;;;;;;0.70;0.40;;;25.90;65.70;;;;;;5009857;28;20404;-67
2022/06/15 10:22:56;;;;;;;0.50;0.50;;;25.90;66.80;;;;;;5010215;28;20400;-67
2022/06/15 10:25:23;;;;;;;0.90;0.60;;;26.10;67.80;;;;;;5009485;28;20385;-67
2022/06/15 10:27:51;;;;;;;0.40;0.20;;;26.20;68.40;;;;;;5009240;28;20401;-67
2022/06/15 10:30:22;;;;;;;0.40;0.30;;;26.10;67.80;;;;;;5012145;28;20504;-67
2022/06/15 10:33:13;;;;;;;0.60;0.60;;;26.40;67.50;;;;;;5029355;28;20437;-68
2022/06/15 10:35:38;;;;;;;0.40;0.20;;;26.50;69.80;;;;;;5010935;28;20932;-67
2022/06/15 10:38:11;;;;;;;0.40;0.30;;;26.40;69.20;;;;;;5010123;28;20377;-67
2022/06/15 10:40:48;;;;;;;0.40;0.20;;;26.50;68.60;;;;;;5016935;28;21095;-67
2022/06/15 10:43:20;;;;;;;0.40;0.20;;;26.70;71.70;;;;;;5026605;28;20759;-66
2022/06/15 10:46:02;;;;;;;0.50;0.40;;;26.80;66.90;;;;;;5030245;28;20799;-67
2022/06/15 10:48:49;;;;;;;0.40;0.30;;;26.90;66.80;;;;;;5048032;28;21019;-67
2022/06/15 10:51:17;;;;;;;0.40;0.30;;;26.90;62.10;;;;;;5049350;28;20389;-66
2022/06/15 10:54:10;;;;;;;0.40;0.20;;;27.00;62.20;;;;;;5051213;28;20401;-66
2022/06/15 11:02:25;;;;;;;0.60;0.50;;;27.10;59.90;;;;;;5052452;28;20389;-67
2022/06/15 11:04:56;;;;;;;0.40;0.20;;;27.30;59.60;;;;;;5053395;28;20508;-67
2022/06/15 11:07:21;;;;;;;0.40;0.20;;;27.40;59.00;;;;;;5051338;28;20777;-67
2022/06/15 11:09:53;;;;;;;0.50;0.50;;;27.50;57.60;;;;;;5037287;28;20395;-68
2022/06/15 11:12:22;;;;;;;0.40;0.30;;;27.70;56.50;;;;;;5031283;28;20780;-68
2022/06/15 11:14:50;;;;;;;0.40;0.30;;;27.80;58.10;;;;;;5032941;28;20465;-68
2022/06/15 11:20:16;;;;;;;0.40;0.20;;;28.10;56.60;;;;;;5051158;28;20392;-67
2022/06/15 11:22:42;;;;;;;2.50;1.00;;;28.10;58.20;;;;;;5025486;28;21229;-67
2022/06/15 11:25:16;;;;;;;0.40;0.20;;;28.20;55.20;;;;;;5030062;28;20510;-67
2022/06/15 11:28:00;;;;;;;0.40;0.30;;;28.30;57.70;;;;;;5022783;28;20860;-68
2022/06/15 11:30:39;;;;;;;0.40;0.20;;;28.30;57.10;;;;;;5024487;28;20387;-68
2022/06/15 11:33:46;;;;;;;0.40;0.20;;;28.40;54.20;;;;;;5048030;28;20470;-67
2022/06/15 11:36:15;;;;;;;0.40;0.40;;;28.80;55.10;;;;;;5018275;28;20482;-67
2022/06/15 11:38:46;;;;;;;0.50;0.38;;;29.50;54.00;;;;;;5036043;28;20395;-67
2022/06/15 11:41:24;;;;;;;0.50;0.40;;;29.60;51.90;;;;;;5048531;28;20393;-67
2022/06/15 11:43:52;;;;;;;0.40;0.20;;;30.20;54.20;;;;;;5037863;28;20405;-68
2022/06/15 11:46:33;;;;;;;0.40;0.20;;;31.10;52.00;;;;;;5045405;28;20729;-68
2022/06/15 11:49:05;;;;;;;0.40;0.20;;;31.60;51.60;;;;;;5023467;28;20404;-68
2022/06/15 11:51:51;;;;;;;0.40;0.20;;;32.40;49.80;;;;;;5047274;28;20419;-68
2022/06/15 11:54:30;;;;;;;0.40;0.20;;;32.80;47.70;;;;;;5035608;28;20419;-67
2022/06/15 11:57:13;;;;;;;0.70;0.50;;;33.10;44.00;;;;;;5025989;28;20460;-68
2022/06/15 11:59:54;;;;;;;0.40;0.30;;;32.60;41.80;;;;;;5025941;28;20419;-67
2022/06/15 12:02:55;;;;;;;0.40;0.20;;;33.30;39.50;;;;;;5024104;28;20703;-67
2022/06/15 12:05:41;;;;;;;0.40;0.40;;;33.50;38.90;;;;;;5020717;28;20443;-67
2022/06/15 12:08:33;;;;;;;0.40;0.20;;;33.60;46.30;;;;;;5018434;28;20491;-67
2022/06/15 12:12:37;;;;;;;0.60;0.50;;;33.90;45.20;;;;;;5029967;28;20392;-67
2022/06/15 12:14:16;;;;;;;0.40;0.20;;;33.40;41.90;;;;;;5027377;28;20415;-67
2022/06/15 12:16:44;;;;;;;0.40;0.20;;;33.00;50.00;;;;;;5025819;28;20401;-67
2022/06/15 12:19:25;;;;;;;0.40;0.30;;;32.80;46.50;;;;;;5029597;28;20863;-67
2022/06/15 12:22:01;;;;;;;0.40;0.20;;;33.40;44.00;;;;;;5032225;28;20406;-68
2022/06/15 12:24:31;;;;;;;0.40;0.30;;;33.10;39.70;;;;;;5027537;28;20399;-67
2022/06/15 12:27:04;;;;;;;0.40;0.30;;;33.90;42.80;;;;;;5039261;28;20766;-68
2022/06/15 12:29:56;;;;;;;0.40;0.20;;;33.90;39.30;;;;;;5051019;28;20801;-67
2022/06/15 12:32:36;;;;;;;0.40;0.20;;;33.90;40.00;;;;;;5035545;28;20461;-68
2022/06/15 12:35:35;;;;;;;0.40;0.20;;;33.20;39.10;;;;;;5031508;28;20413;-67
2022/06/15 12:38:20;;;;;;;0.70;0.50;;;31.90;44.20;;;;;;5031716;28;20375;-68
2022/06/15 12:43:57;;;;;;;0.40;0.30;;;32.90;37.60;;;;;;5027829;28;20414;-67
2022/06/15 12:46:25;;;;;;;0.40;0.22;;;32.30;41.40;;;;;;5027673;28;20634;-67
2022/06/15 12:49:04;;;;;;;0.40;0.20;;;32.40;42.50;;;;;;5031016;28;20422;-67
2022/06/15 12:51:32;;;;;;;0.40;0.20;;;31.90;39.30;;;;;;5030765;28;20411;-68
2022/06/15 12:54:07;;;;;;;0.40;0.40;;;31.80;42.60;;;;;;5045307;28;20962;-67
2022/06/15 12:56:40;;;;;;;0.40;0.20;;;32.30;40.70;;;;;;5026919;28;21263;-67
2022/06/15 12:59:36;;;;;;;0.40;0.20;;;31.10;44.40;;;;;;5032177;28;20403;-67
2022/06/15 13:02:23;;;;;;;0.40;0.20;;;31.10;47.60;;;;;;5038798;28;20416;-68
2022/06/15 13:05:05;;;;;;;0.40;0.20;;;31.10;42.60;;;;;;5050993;28;20785;-67
2022/06/15 13:07:34;;;;;;;0.50;0.30;;;31.80;40.10;;;;;;5050332;28;20385;-67
2022/06/15 13:10:16;;;;;;;0.40;0.20;;;32.20;37.30;;;;;;5050068;28;20378;-67
2022/06/15 13:12:50;;;;;;;0.40;0.20;;;32.20;41.30;;;;;;5022569;28;20480;-67
2022/06/15 13:15:29;;;;;;;0.40;0.20;;;32.30;36.20;;;;;;5010871;28;20805;-67
2022/06/15 13:18:11;;;;;;;0.40;0.20;;;32.00;37.80;;;;;;5010857;28;20412;-67
2022/06/15 13:20:46;;;;;;;0.60;0.60;;;32.40;42.70;;;;;;5010590;28;20512;-67
2022/06/15 13:23:37;;;;;;;0.40;0.20;;;31.80;38.70;;;;;;5011413;28;20392;-67
2022/06/15 13:26:06;;;;;;;0.40;0.30;;;31.80;41.60;;;;;;5011457;28;20387;-67
2022/06/15 13:28:35;;;;;;;0.40;0.20;;;31.10;42.60;;;;;;5010791;28;20388;-65
2022/06/15 13:31:08;;;;;;;0.47;0.30;;;31.50;46.40;;;;;;5011299;28;20421;-67
2022/06/15 13:33:51;;;;;;;0.40;0.20;;;31.80;45.20;;;;;;5020454;28;20970;-66
2022/06/15 13:36:22;;;;;;;0.40;0.20;;;31.30;44.10;;;;;;5010747;28;20393;-67
2022/06/15 13:38:49;;;;;;;0.40;0.20;;;31.70;42.70;;;;;;5011201;28;20373;-66
2022/06/15 13:41:15;;;;;;;0.40;0.30;;;32.00;44.70;;;;;;5011095;28;20753;-67